Time;durP1;ratioP1;P1;durP2;ratioP2;P2;SDS_P1;SDS_P2;PMS_P1;PMS_P2;Temp;Humidity;BMP_temperature;BMP_pressure;BME280_temperature;BME280_humidity;BME280_pressure;Samples;Min_cycle;Max_cycle;Signal;HPM_P1;HPM_P2
2022/09/08 00:00:32;;;;;;;6.17;4.37;;;19.30;99.90;;;;;;6217433;23;20156;-46
2022/09/08 00:03:01;;;;;;;6.23;5.30;;;19.20;99.90;;;;;;6217418;23;20483;-44
2022/09/08 00:05:28;;;;;;;5.00;4.00;;;19.20;99.90;;;;;;6216687;23;20165;-43
2022/09/08 00:07:55;;;;;;;4.90;4.50;;;19.20;99.90;;;;;;6216391;23;20373;-45
2022/09/08 00:10:22;;;;;;;5.00;4.60;;;19.30;99.90;;;;;;6218215;23;20475;-46
2022/09/08 00:12:48;;;;;;;5.47;4.93;;;19.20;99.90;;;;;;6217023;23;20440;-47
2022/09/08 00:15:14;;;;;;;4.90;4.50;;;19.10;99.90;;;;;;6217834;23;20386;-46
2022/09/08 00:17:39;;;;;;;5.73;4.47;;;19.20;99.90;;;;;;6218092;23;20849;-41
2022/09/08 00:20:07;;;;;;;4.70;4.30;;;19.10;99.90;;;;;;6218999;23;20391;-43
2022/09/08 00:22:32;;;;;;;5.10;4.60;;;19.10;99.90;;;;;;6219387;23;20145;-46
2022/09/08 00:24:58;;;;;;;4.23;3.83;;;19.10;99.90;;;;;;6219166;23;20422;-45
2022/09/08 00:27:24;;;;;;;4.93;4.33;;;19.10;99.90;;;;;;6218820;23;20177;-47
2022/09/08 00:29:49;;;;;;;5.50;3.60;;;19.10;99.90;;;;;;6220308;23;20211;-45
2022/09/08 00:32:15;;;;;;;4.90;4.50;;;19.20;99.90;;;;;;6218811;23;20180;-48
2022/09/08 00:34:41;;;;;;;6.33;4.23;;;19.20;99.90;;;;;;6219030;23;20136;-47
2022/09/08 00:37:06;;;;;;;5.63;4.50;;;19.30;99.90;;;;;;6218303;23;20155;-43
2022/09/08 00:39:32;;;;;;;5.10;4.70;;;19.30;99.90;;;;;;6219969;23;20133;-46
2022/09/08 00:41:57;;;;;;;5.67;5.03;;;19.20;99.90;;;;;;6219570;23;20147;-45
2022/09/08 00:44:50;;;;;;;7.63;4.50;;;19.00;99.90;;;;;;6219627;23;20230;-45
2022/09/08 00:47:25;;;;;;;6.17;4.67;;;19.00;99.90;;;;;;6213025;23;20479;-46
2022/09/08 00:50:04;;;;;;;5.17;4.20;;;19.00;99.90;;;;;;6193433;23;20357;-45
2022/09/08 00:52:52;;;;;;;4.70;4.17;;;19.00;99.90;;;;;;6192435;23;20446;-44
2022/09/08 00:55:20;;;;;;;5.03;4.20;;;18.90;99.90;;;;;;6193006;23;20375;-48
2022/09/08 00:57:45;;;;;;;5.10;4.60;;;19.00;99.90;;;;;;6217663;23;20520;-41
2022/09/08 01:00:13;;;;;;;5.30;4.53;;;18.90;99.90;;;;;;6217550;23;20804;-43
2022/09/08 01:02:39;;;;;;;4.13;3.83;;;19.00;99.90;;;;;;6218835;23;20237;-43
2022/09/08 01:05:10;;;;;;;7.97;4.80;;;19.00;99.90;;;;;;6190991;23;20411;-46
2022/09/08 01:13:38;;;;;;;4.50;4.10;;;19.00;99.90;;;;;;6217279;23;20906;-42
2022/09/08 01:16:06;;;;;;;6.00;4.53;;;19.00;99.90;;;;;;6191465;23;20384;-46
2022/09/08 01:18:33;;;;;;;3.77;3.47;;;19.00;99.90;;;;;;6216717;23;20144;-45
2022/09/08 01:21:44;;;;;;;4.13;3.57;;;19.00;99.90;;;;;;6166803;23;20401;-46
2022/09/08 01:24:18;;;;;;;3.60;3.30;;;19.00;99.90;;;;;;6166830;23;20384;-47
2022/09/08 01:27:00;;;;;;;4.20;3.90;;;19.00;99.90;;;;;;6191688;23;20382;-46
2022/09/08 01:29:25;;;;;;;4.67;4.17;;;19.10;99.90;;;;;;6218549;23;20369;-43
2022/09/08 01:31:53;;;;;;;4.10;3.70;;;19.10;99.90;;;;;;6217913;23;20700;-42
2022/09/08 01:34:19;;;;;;;4.47;4.17;;;19.10;99.90;;;;;;6217625;23;20310;-44
2022/09/08 01:36:44;;;;;;;4.37;3.97;;;19.00;99.90;;;;;;6190387;23;20377;-44
2022/09/08 01:39:10;;;;;;;4.10;3.70;;;18.90;99.90;;;;;;6217591;23;20395;-45
2022/09/08 01:41:36;;;;;;;5.33;4.83;;;18.80;99.90;;;;;;6216888;23;20160;-43
2022/09/08 01:44:02;;;;;;;4.80;4.03;;;18.70;99.90;;;;;;6216731;23;20448;-45
2022/09/08 01:46:28;;;;;;;6.20;4.50;;;18.60;99.90;;;;;;6217752;23;20158;-42
2022/09/08 01:48:54;;;;;;;4.03;3.73;;;18.60;99.90;;;;;;6217206;23;20375;-44
2022/09/08 01:51:20;;;;;;;5.83;3.70;;;18.50;99.90;;;;;;6218445;23;20783;-46
2022/09/08 01:53:45;;;;;;;5.70;3.90;;;18.50;99.90;;;;;;6219218;23;20241;-47
2022/09/08 01:56:11;;;;;;;3.40;3.10;;;18.40;99.90;;;;;;6218062;23;20232;-46
2022/09/08 01:58:36;;;;;;;4.20;3.30;;;18.40;99.90;;;;;;6217650;23;20136;-43
2022/09/08 02:01:03;;;;;;;4.30;3.20;;;18.30;99.90;;;;;;6217643;23;20153;-43
2022/09/08 02:03:28;;;;;;;2.50;2.23;;;18.20;99.90;;;;;;6218818;23;20204;-45
2022/09/08 02:05:58;;;;;;;3.10;2.60;;;18.10;99.90;;;;;;6218287;23;20384;-45
2022/09/08 02:08:24;;;;;;;4.67;2.43;;;18.00;99.90;;;;;;6218658;23;20148;-43
2022/09/08 02:10:54;;;;;;;2.93;2.30;;;17.90;99.90;;;;;;6218649;23;20374;-45
2022/09/08 02:13:20;;;;;;;2.33;2.13;;;17.90;99.90;;;;;;6217999;23;20195;-41
2022/09/08 02:15:45;;;;;;;2.77;2.47;;;17.80;99.90;;;;;;6218562;23;20717;-42
2022/09/08 02:18:11;;;;;;;4.03;2.13;;;17.70;99.90;;;;;;6217856;23;20363;-44
2022/09/08 02:20:37;;;;;;;3.13;2.53;;;17.70;99.90;;;;;;6218265;23;20168;-43
2022/09/08 02:23:02;;;;;;;2.70;2.30;;;17.70;99.90;;;;;;6217727;23;20419;-43
2022/09/08 02:25:28;;;;;;;4.00;2.30;;;17.60;99.90;;;;;;6218444;23;20151;-44
2022/09/08 02:27:53;;;;;;;2.00;1.80;;;17.60;99.90;;;;;;6192952;23;20156;-45
2022/09/08 02:30:20;;;;;;;2.40;2.10;;;17.50;99.90;;;;;;6191267;23;20226;-46
2022/09/08 02:32:45;;;;;;;2.50;2.10;;;17.40;99.90;;;;;;6218155;23;20201;-46
2022/09/08 02:35:11;;;;;;;2.20;1.80;;;17.40;99.90;;;;;;6218018;23;20379;-41
2022/09/08 02:37:36;;;;;;;2.37;2.00;;;17.30;99.90;;;;;;6218779;23;20152;-48
2022/09/08 02:40:03;;;;;;;2.20;1.90;;;17.30;99.90;;;;;;6218048;23;20140;-46
2022/09/08 02:42:29;;;;;;;3.20;1.60;;;17.30;99.90;;;;;;6219068;23;20159;-45
2022/09/08 02:44:55;;;;;;;2.00;1.80;;;17.30;99.90;;;;;;6217687;23;20367;-45
2022/09/08 02:47:21;;;;;;;2.70;1.90;;;17.30;99.90;;;;;;6217349;23;20453;-43
2022/09/08 02:49:46;;;;;;;1.67;1.53;;;17.30;99.90;;;;;;6217787;23;20153;-44
2022/09/08 02:52:12;;;;;;;1.87;1.70;;;17.30;99.90;;;;;;6217782;23;20406;-44
2022/09/08 02:54:38;;;;;;;2.30;1.60;;;17.30;99.90;;;;;;6217677;23;20140;-42
2022/09/08 02:57:04;;;;;;;2.00;1.70;;;17.30;99.90;;;;;;6218382;23;20182;-44
2022/09/08 02:59:30;;;;;;;3.20;1.73;;;17.30;99.90;;;;;;6218085;23;20364;-43
2022/09/08 03:01:58;;;;;;;2.20;1.73;;;17.30;99.90;;;;;;6217357;23;20379;-45
2022/09/08 03:04:23;;;;;;;2.23;1.70;;;17.30;99.90;;;;;;6216383;23;20159;-46
2022/09/08 03:06:49;;;;;;;2.20;1.60;;;17.20;99.90;;;;;;6217196;23;20373;-43
2022/09/08 03:09:14;;;;;;;3.30;1.70;;;17.20;99.90;;;;;;6216205;23;20152;-46
2022/09/08 03:11:40;;;;;;;4.67;1.67;;;17.20;99.90;;;;;;6216050;23;20520;-46
2022/09/08 03:14:06;;;;;;;1.90;1.40;;;17.20;99.90;;;;;;6215799;23;20179;-43
2022/09/08 03:16:31;;;;;;;2.30;1.83;;;17.10;99.90;;;;;;6215806;23;20143;-44
2022/09/08 03:18:57;;;;;;;4.20;1.43;;;17.10;99.90;;;;;;6215868;23;20375;-43
2022/09/08 03:21:23;;;;;;;2.53;1.57;;;17.00;99.90;;;;;;6216362;23;20131;-44
2022/09/08 03:23:49;;;;;;;2.37;1.30;;;17.00;99.90;;;;;;6216933;23;20159;-44
2022/09/08 03:26:17;;;;;;;1.90;1.73;;;17.00;99.90;;;;;;6216896;23;20159;-43
2022/09/08 03:28:44;;;;;;;1.83;1.30;;;16.90;99.90;;;;;;6218146;23;20157;-43
2022/09/08 03:31:15;;;;;;;2.10;1.67;;;16.90;99.90;;;;;;6218034;23;20657;-42
2022/09/08 03:33:41;;;;;;;2.60;1.60;;;16.90;99.90;;;;;;6217593;23;20433;-45
2022/09/08 03:36:08;;;;;;;5.27;2.00;;;17.00;99.90;;;;;;6192042;23;20369;-44
2022/09/08 03:38:34;;;;;;;3.20;1.60;;;17.00;99.90;;;;;;6217857;23;20379;-45
2022/09/08 03:41:01;;;;;;;2.50;1.47;;;17.00;99.90;;;;;;6216552;23;20357;-41
2022/09/08 03:43:26;;;;;;;1.90;1.30;;;17.00;99.90;;;;;;6191211;23;20388;-43
2022/09/08 03:45:52;;;;;;;1.97;1.70;;;17.00;99.90;;;;;;6218229;23;20398;-45
2022/09/08 03:48:18;;;;;;;1.93;1.50;;;17.00;99.90;;;;;;6219585;23;20155;-43
2022/09/08 03:50:43;;;;;;;5.00;1.63;;;17.00;99.90;;;;;;6218985;23;20232;-43
2022/09/08 03:53:10;;;;;;;1.93;1.30;;;16.90;99.90;;;;;;6218182;23;20247;-45
2022/09/08 03:55:39;;;;;;;2.43;1.57;;;16.90;99.90;;;;;;6216695;23;20531;-44
2022/09/08 03:58:05;;;;;;;3.17;1.50;;;16.90;99.90;;;;;;6217041;23;20378;-45
2022/09/08 04:00:31;;;;;;;1.60;1.23;;;16.90;99.90;;;;;;6216452;23;20375;-44
2022/09/08 04:02:56;;;;;;;2.20;1.33;;;16.90;99.90;;;;;;6217659;23;20520;-47
2022/09/08 04:05:22;;;;;;;2.80;1.67;;;16.90;99.90;;;;;;6217721;23;20152;-42
2022/09/08 04:07:48;;;;;;;3.13;2.10;;;16.90;99.90;;;;;;6218684;23;20438;-44
2022/09/08 04:10:15;;;;;;;1.90;1.30;;;16.80;99.90;;;;;;6217734;23;20404;-44
2022/09/08 04:12:41;;;;;;;1.93;1.50;;;16.80;99.90;;;;;;6218515;23;20501;-44
2022/09/08 04:15:08;;;;;;;1.33;1.07;;;16.80;99.90;;;;;;6219304;23;20364;-43
2022/09/08 04:17:35;;;;;;;3.47;1.50;;;16.70;99.90;;;;;;6193881;23;20377;-43
2022/09/08 04:20:02;;;;;;;1.40;1.20;;;16.60;99.90;;;;;;6220182;23;20717;-45
2022/09/08 04:22:28;;;;;;;1.50;1.30;;;16.60;99.90;;;;;;6219905;23;20390;-47
2022/09/08 04:24:53;;;;;;;1.60;0.97;;;16.60;99.90;;;;;;6219172;23;20476;-45
2022/09/08 04:27:21;;;;;;;1.83;1.30;;;16.50;99.90;;;;;;6216802;23;20151;-45
2022/09/08 04:29:47;;;;;;;2.07;1.30;;;16.50;99.90;;;;;;6215167;23;20227;-45
2022/09/08 04:32:13;;;;;;;2.33;1.23;;;16.60;99.90;;;;;;6188996;23;20406;-43
2022/09/08 04:34:38;;;;;;;1.37;1.10;;;16.50;99.90;;;;;;6217004;23;20710;-41
2022/09/08 04:37:05;;;;;;;3.30;1.07;;;16.50;99.90;;;;;;6214333;23;20150;-43
2022/09/08 04:39:31;;;;;;;1.67;1.30;;;16.60;99.90;;;;;;6214669;23;20210;-44
2022/09/08 04:41:57;;;;;;;1.70;1.33;;;16.60;99.90;;;;;;6214962;23;20656;-44
2022/09/08 04:44:22;;;;;;;1.93;1.40;;;16.60;99.90;;;;;;6215355;23;20438;-45
2022/09/08 04:46:48;;;;;;;2.13;1.30;;;16.60;99.90;;;;;;6215713;23;20427;-43
2022/09/08 04:49:13;;;;;;;1.70;1.40;;;16.50;99.90;;;;;;6215984;23;20173;-44
2022/09/08 04:51:39;;;;;;;2.40;1.20;;;16.50;99.90;;;;;;6217674;23;20185;-43
2022/09/08 04:54:05;;;;;;;1.87;1.57;;;16.50;99.90;;;;;;6217010;23;20258;-43
2022/09/08 04:56:32;;;;;;;1.93;1.60;;;16.50;99.90;;;;;;6218054;23;20362;-43
2022/09/08 04:59:00;;;;;;;3.13;1.27;;;16.40;99.90;;;;;;6216878;23;20374;-42
2022/09/08 05:01:30;;;;;;;1.90;1.60;;;16.40;99.90;;;;;;6214616;23;20362;-44
2022/09/08 05:04:01;;;;;;;1.70;1.20;;;16.40;99.90;;;;;;6215100;23;20390;-43
2022/09/08 05:06:29;;;;;;;3.50;1.70;;;16.40;99.90;;;;;;6215036;23;20362;-45
2022/09/08 05:08:56;;;;;;;2.53;1.57;;;16.40;99.90;;;;;;6214717;23;20398;-43
2022/09/08 05:11:23;;;;;;;2.30;1.60;;;16.40;99.90;;;;;;6214929;23;20366;-45
2022/09/08 05:13:49;;;;;;;2.10;1.43;;;16.30;99.90;;;;;;6214099;23;20445;-43
2022/09/08 05:16:17;;;;;;;1.77;1.30;;;16.40;99.90;;;;;;6214002;23;20385;-44
2022/09/08 05:18:47;;;;;;;2.90;1.90;;;16.40;99.90;;;;;;6214458;23;20355;-42
2022/09/08 05:21:13;;;;;;;1.70;1.43;;;16.40;99.90;;;;;;6212128;23;20354;-43
2022/09/08 05:23:38;;;;;;;1.80;1.40;;;16.40;99.90;;;;;;6212400;23;20421;-44
2022/09/08 05:26:06;;;;;;;2.37;2.00;;;16.50;99.90;;;;;;6214368;23;20244;-45
2022/09/08 05:28:35;;;;;;;1.90;1.70;;;16.50;99.90;;;;;;6188942;23;20640;-42
2022/09/08 05:31:01;;;;;;;1.80;1.50;;;16.50;99.90;;;;;;6214293;23;20369;-44
2022/09/08 05:33:27;;;;;;;2.13;1.90;;;16.50;99.90;;;;;;6214609;23;20672;-42
2022/09/08 05:35:53;;;;;;;1.90;1.50;;;16.50;99.90;;;;;;6214427;23;20390;-44
2022/09/08 05:38:19;;;;;;;3.03;1.33;;;16.50;99.90;;;;;;6215285;23;20396;-44
2022/09/08 05:40:45;;;;;;;1.97;1.40;;;16.50;99.90;;;;;;6214439;23;20171;-44
2022/09/08 05:43:11;;;;;;;2.40;1.60;;;16.50;99.90;;;;;;6214186;23;20814;-42
2022/09/08 05:45:36;;;;;;;1.67;1.50;;;16.50;99.90;;;;;;6187922;23;20643;-44
2022/09/08 05:48:03;;;;;;;3.70;1.90;;;16.60;99.90;;;;;;6214502;23;20182;-44
2022/09/08 05:50:34;;;;;;;1.60;1.30;;;16.70;99.90;;;;;;6214799;23;20581;-46
2022/09/08 05:53:02;;;;;;;3.20;1.60;;;16.80;99.90;;;;;;6214758;23;20423;-47
2022/09/08 05:55:28;;;;;;;2.80;1.23;;;16.80;99.90;;;;;;6215058;23;20789;-43
2022/09/08 05:57:55;;;;;;;1.73;1.33;;;16.80;99.90;;;;;;6214974;23;20365;-43
2022/09/08 06:00:21;;;;;;;1.37;1.20;;;16.80;99.90;;;;;;6216666;23;20144;-42
2022/09/08 06:02:53;;;;;;;2.90;1.37;;;16.60;99.90;;;;;;6185867;23;20434;-44
2022/09/08 06:05:20;;;;;;;2.17;1.00;;;16.60;99.90;;;;;;6182373;23;20496;-42
2022/09/08 06:07:47;;;;;;;1.70;1.17;;;16.60;99.90;;;;;;6209294;23;20376;-42
2022/09/08 06:10:13;;;;;;;2.70;0.80;;;16.50;99.90;;;;;;6210103;23;20383;-46
2022/09/08 06:12:39;;;;;;;1.30;0.80;;;16.50;99.90;;;;;;6210521;23;20537;-43
2022/09/08 06:15:05;;;;;;;1.57;1.03;;;16.40;99.90;;;;;;6211287;23;20692;-44
2022/09/08 06:17:31;;;;;;;1.47;0.97;;;16.40;99.90;;;;;;6212941;23;20164;-43
2022/09/08 06:19:57;;;;;;;2.47;1.27;;;16.40;99.90;;;;;;6211860;23;20471;-44
2022/09/08 06:22:23;;;;;;;2.17;1.30;;;16.40;99.90;;;;;;6213742;23;20363;-43
2022/09/08 06:24:48;;;;;;;1.40;1.00;;;16.40;99.90;;;;;;6212551;23;20699;-44
2022/09/08 06:27:41;;;;;;;1.83;0.97;;;16.50;99.90;;;;;;6214704;23;20773;-45
2022/09/08 06:30:11;;;;;;;2.80;1.10;;;16.60;99.90;;;;;;6158666;23;20152;-44
2022/09/08 06:32:42;;;;;;;1.30;0.80;;;16.60;99.90;;;;;;6215307;23;20401;-45
2022/09/08 06:35:14;;;;;;;2.73;1.30;;;16.70;99.90;;;;;;6212695;23;20386;-44
2022/09/08 06:37:49;;;;;;;1.70;0.80;;;16.70;99.90;;;;;;6213276;23;20384;-43
2022/09/08 06:40:32;;;;;;;2.33;1.33;;;16.80;99.90;;;;;;6214228;23;20378;-43
2022/09/08 06:43:03;;;;;;;1.97;1.30;;;16.80;99.90;;;;;;6188948;23;20498;-42
2022/09/08 06:45:43;;;;;;;1.30;1.10;;;16.90;99.90;;;;;;6213211;23;20451;-44
2022/09/08 06:48:15;;;;;;;1.67;0.80;;;17.00;99.90;;;;;;6188605;23;20455;-43
2022/09/08 06:51:08;;;;;;;1.77;0.83;;;17.00;99.90;;;;;;6213012;23;20351;-44
2022/09/08 06:53:38;;;;;;;1.10;0.80;;;17.10;99.90;;;;;;6214341;23;20415;-45
2022/09/08 06:56:21;;;;;;;2.97;1.40;;;17.10;99.90;;;;;;6187294;23;20816;-43
2022/09/08 06:58:47;;;;;;;2.67;0.93;;;17.00;99.90;;;;;;6188935;23;20364;-43
2022/09/08 07:01:47;;;;;;;2.70;1.03;;;17.00;99.90;;;;;;6214581;23;20525;-42
2022/09/08 07:04:41;;;;;;;1.90;1.00;;;16.90;99.90;;;;;;6146669;23;20155;-44
2022/09/08 07:07:20;;;;;;;1.63;1.53;;;16.80;99.90;;;;;;6214234;23;20439;-43
2022/09/08 07:09:57;;;;;;;1.10;0.67;;;16.80;99.90;;;;;;6188863;23;20433;-43
2022/09/08 07:12:32;;;;;;;1.80;1.00;;;16.90;99.90;;;;;;6215428;23;20426;-45
2022/09/08 07:15:28;;;;;;;2.00;1.20;;;16.70;99.90;;;;;;6215927;23;20420;-46
2022/09/08 07:17:58;;;;;;;1.87;0.80;;;16.80;99.90;;;;;;6217405;23;20644;-43
2022/09/08 07:20:26;;;;;;;2.07;0.63;;;16.70;99.90;;;;;;6216430;23;20365;-42
2022/09/08 07:22:53;;;;;;;1.87;1.03;;;16.80;99.90;;;;;;6216320;23;20390;-44
2022/09/08 07:25:35;;;;;;;1.53;1.00;;;16.90;99.90;;;;;;6215772;23;20358;-42
2022/09/08 07:28:11;;;;;;;2.10;0.90;;;16.90;99.90;;;;;;6164856;23;20394;-44
2022/09/08 07:30:39;;;;;;;1.20;0.80;;;17.10;99.90;;;;;;6187158;23;20373;-41
2022/09/08 07:33:32;;;;;;;1.80;0.83;;;17.10;99.90;;;;;;6188178;23;20854;-42
2022/09/08 07:36:09;;;;;;;1.77;0.80;;;17.20;99.90;;;;;;6173452;23;20405;-44
2022/09/08 07:38:54;;;;;;;2.37;0.93;;;17.30;99.90;;;;;;6214367;23;20360;-44
2022/09/08 07:41:43;;;;;;;2.20;0.70;;;17.70;99.90;;;;;;6214713;23;20381;-45
2022/09/08 07:44:14;;;;;;;1.40;0.83;;;17.60;99.90;;;;;;6215258;23;20818;-43
2022/09/08 07:46:58;;;;;;;1.30;0.90;;;17.80;99.90;;;;;;6212805;23;20385;-42
2022/09/08 07:49:42;;;;;;;1.50;0.77;;;17.90;99.90;;;;;;6184715;23;20389;-43
2022/09/08 07:52:26;;;;;;;2.47;0.87;;;17.90;99.80;;;;;;6213085;23;20455;-42
2022/09/08 07:55:19;;;;;;;1.60;0.90;;;17.80;99.90;;;;;;6213277;23;20382;-44
2022/09/08 07:58:14;;;;;;;2.07;0.97;;;17.60;99.90;;;;;;6213627;23;20435;-43
2022/09/08 08:00:58;;;;;;;2.50;1.00;;;17.60;99.90;;;;;;6209673;23;20362;-44
2022/09/08 08:03:43;;;;;;;2.23;1.27;;;18.10;99.90;;;;;;6212263;23;20352;-44
2022/09/08 08:06:38;;;;;;;2.40;1.10;;;18.60;99.90;;;;;;6213345;23;20369;-44
2022/09/08 08:09:36;;;;;;;3.90;1.20;;;18.40;98.10;;;;;;6213875;23;20374;-42
2022/09/08 08:12:20;;;;;;;1.70;0.83;;;18.40;98.40;;;;;;6188585;23;20495;-43
2022/09/08 08:14:57;;;;;;;2.60;1.20;;;18.20;98.40;;;;;;6215626;23;20386;-45
2022/09/08 08:17:32;;;;;;;3.10;0.80;;;18.20;98.90;;;;;;6186817;23;20666;-45
2022/09/08 08:20:15;;;;;;;2.27;1.40;;;18.20;98.80;;;;;;6212866;23;20349;-43
2022/09/08 08:23:06;;;;;;;2.10;1.33;;;18.40;99.30;;;;;;6186675;23;20361;-43
2022/09/08 08:25:47;;;;;;;2.90;1.30;;;18.90;98.70;;;;;;6212952;23;20841;-42
2022/09/08 08:28:16;;;;;;;1.40;1.00;;;18.90;97.40;;;;;;6214099;23;20368;-43
2022/09/08 08:30:47;;;;;;;1.53;0.90;;;19.00;97.90;;;;;;6216709;23;20352;-42
2022/09/08 08:33:27;;;;;;;2.23;1.10;;;19.30;97.00;;;;;;6216392;23;20422;-43
2022/09/08 08:36:05;;;;;;;1.40;1.00;;;19.20;96.80;;;;;;6165894;23;20782;-43
2022/09/08 08:38:35;;;;;;;3.33;1.37;;;19.30;95.80;;;;;;6190598;23;20674;-42
2022/09/08 08:41:07;;;;;;;1.50;1.20;;;19.30;96.00;;;;;;6189602;23;20394;-43
2022/09/08 08:43:51;;;;;;;2.00;1.17;;;19.60;96.60;;;;;;6216826;23;20413;-42
2022/09/08 08:46:43;;;;;;;1.90;1.20;;;19.70;96.10;;;;;;6190742;23;20795;-43
2022/09/08 08:49:17;;;;;;;1.60;1.20;;;19.50;96.20;;;;;;6174165;23;20389;-43
2022/09/08 08:52:08;;;;;;;1.70;1.30;;;19.90;96.30;;;;;;6215737;23;20407;-44
2022/09/08 08:54:45;;;;;;;1.80;1.10;;;20.00;96.00;;;;;;6216979;23;20408;-43
2022/09/08 08:57:29;;;;;;;2.07;1.00;;;20.40;95.40;;;;;;6217347;23;20738;-42
2022/09/08 09:00:03;;;;;;;2.53;1.53;;;21.10;94.70;;;;;;6214848;23;20386;-43
2022/09/08 09:02:29;;;;;;;1.43;1.03;;;21.10;93.20;;;;;;6213695;23;20483;-43
2022/09/08 09:05:16;;;;;;;2.07;1.00;;;21.10;93.50;;;;;;6217110;23;20380;-44
2022/09/08 09:07:57;;;;;;;8.83;1.37;;;21.40;93.60;;;;;;6214947;23;20220;-42
2022/09/08 09:10:34;;;;;;;2.33;1.03;;;21.30;92.90;;;;;;6213660;23;20375;-43
2022/09/08 09:13:18;;;;;;;4.53;1.93;;;20.70;91.60;;;;;;6213234;23;20452;-43
2022/09/08 09:16:02;;;;;;;1.50;1.20;;;20.40;92.70;;;;;;6213273;23;20372;-44
2022/09/08 09:19:02;;;;;;;2.40;1.20;;;20.20;93.30;;;;;;6215001;23;20361;-41
2022/09/08 09:21:38;;;;;;;2.30;1.30;;;20.00;93.40;;;;;;6187357;23;20686;-42
2022/09/08 09:24:36;;;;;;;1.63;1.07;;;19.60;93.80;;;;;;6214069;23;20356;-43
2022/09/08 09:27:14;;;;;;;3.00;1.10;;;19.50;94.10;;;;;;6127182;23;20809;-42
2022/09/08 09:29:41;;;;;;;1.97;1.07;;;19.10;93.80;;;;;;6185143;23;20657;-46
2022/09/08 09:32:44;;;;;;;1.80;1.10;;;19.00;94.60;;;;;;6213024;23;20355;-43
2022/09/08 09:35:14;;;;;;;3.33;1.30;;;19.10;94.20;;;;;;6212461;23;20400;-44
2022/09/08 09:37:40;;;;;;;2.13;1.50;;;19.10;93.70;;;;;;6186933;23;20835;-48
2022/09/08 09:40:40;;;;;;;2.53;1.10;;;19.10;94.10;;;;;;6213586;23;20375;-42
2022/09/08 09:43:18;;;;;;;2.97;1.30;;;19.30;94.00;;;;;;6080040;23;20502;-43
2022/09/08 09:46:01;;;;;;;2.10;1.40;;;19.60;93.10;;;;;;6187967;23;20399;-43
2022/09/08 09:48:48;;;;;;;3.53;1.40;;;19.90;93.30;;;;;;6187745;23;20353;-43
2022/09/08 09:51:30;;;;;;;5.67;1.83;;;20.30;92.30;;;;;;6188199;23;20545;-45
2022/09/08 09:54:20;;;;;;;4.20;1.50;;;21.10;91.00;;;;;;6215183;23;20407;-43
2022/09/08 09:57:24;;;;;;;2.70;1.37;;;21.80;89.20;;;;;;6215934;23;20480;-45
2022/09/08 10:00:09;;;;;;;2.10;1.20;;;21.80;86.70;;;;;;6191561;23;20400;-45
2022/09/08 10:03:14;;;;;;;2.27;1.30;;;21.20;87.20;;;;;;6215567;23;20680;-45
2022/09/08 10:06:14;;;;;;;3.30;1.60;;;20.40;86.90;;;;;;6189107;23;20438;-44
2022/09/08 10:08:42;;;;;;;4.30;1.27;;;20.30;90.10;;;;;;6215058;23;20394;-45
2022/09/08 10:11:20;;;;;;;1.53;0.80;;;20.30;90.10;;;;;;6213444;23;20378;-46
2022/09/08 10:14:13;;;;;;;3.70;1.30;;;20.40;89.80;;;;;;6214076;23;20443;-46
2022/09/08 10:16:57;;;;;;;2.17;1.37;;;20.40;88.00;;;;;;6213023;23;20436;-44
2022/09/08 10:19:34;;;;;;;1.20;1.00;;;20.40;89.00;;;;;;6213993;23;20637;-44
2022/09/08 10:22:43;;;;;;;2.13;1.27;;;20.50;87.10;;;;;;6212808;23;20755;-44
2022/09/08 10:25:43;;;;;;;3.00;1.00;;;20.10;84.90;;;;;;6212480;23;20355;-44
2022/09/08 10:28:35;;;;;;;2.23;1.07;;;20.00;86.10;;;;;;6212074;23;20390;-46
2022/09/08 10:31:31;;;;;;;1.67;0.90;;;20.20;83.80;;;;;;6185684;23;20538;-46
2022/09/08 10:34:31;;;;;;;2.47;1.10;;;20.50;83.40;;;;;;6185484;23;20416;-43
2022/09/08 10:37:16;;;;;;;2.23;0.90;;;20.60;82.10;;;;;;6210028;23;20414;-43
2022/09/08 10:39:57;;;;;;;3.83;1.10;;;20.50;82.20;;;;;;6135021;23;20682;-43
2022/09/08 10:42:44;;;;;;;2.60;1.13;;;20.10;82.20;;;;;;6213055;23;20470;-43
2022/09/08 10:45:28;;;;;;;2.97;1.10;;;20.00;83.80;;;;;;6213956;23;20382;-43
2022/09/08 10:48:12;;;;;;;2.37;1.07;;;20.00;84.50;;;;;;6214122;23;20625;-45
2022/09/08 10:50:51;;;;;;;3.47;1.40;;;19.80;86.20;;;;;;6213234;23;20379;-45
2022/09/08 10:53:19;;;;;;;1.47;1.03;;;19.60;89.20;;;;;;6213676;23;20521;-44
2022/09/08 10:56:03;;;;;;;2.20;1.20;;;19.60;89.60;;;;;;6215258;23;20663;-44
2022/09/08 10:59:01;;;;;;;1.17;0.70;;;19.70;90.00;;;;;;6213963;23;20359;-45
2022/09/08 11:02:12;;;;;;;2.67;1.47;;;19.80;88.20;;;;;;6160357;23;20651;-45
2022/09/08 11:05:16;;;;;;;2.60;1.10;;;19.70;88.20;;;;;;6155414;23;20382;-47
2022/09/08 11:07:51;;;;;;;3.27;1.50;;;19.80;88.10;;;;;;6215154;23;20711;-44
2022/09/08 11:10:37;;;;;;;1.90;1.43;;;20.10;88.00;;;;;;6212821;23;20419;-44
2022/09/08 11:13:18;;;;;;;2.70;1.30;;;21.00;85.60;;;;;;6185109;23;20475;-45
2022/09/08 11:16:21;;;;;;;2.03;1.20;;;21.50;81.60;;;;;;6213281;23;20353;-44
2022/09/08 11:19:20;;;;;;;2.20;1.10;;;21.60;80.90;;;;;;6214675;23;20414;-45
2022/09/08 11:22:24;;;;;;;3.67;1.53;;;21.70;80.90;;;;;;6213300;23;20387;-45
2022/09/08 11:25:07;;;;;;;2.33;1.23;;;21.80;79.30;;;;;;6158455;23;20776;-46
2022/09/08 11:27:38;;;;;;;2.50;1.23;;;22.60;77.90;;;;;;6187221;23;20399;-44
2022/09/08 11:30:16;;;;;;;1.90;1.00;;;23.20;75.70;;;;;;6187176;23;20370;-45
2022/09/08 11:33:11;;;;;;;2.40;1.20;;;24.20;73.40;;;;;;6187138;23;20517;-46
2022/09/08 11:36:02;;;;;;;4.10;1.07;;;24.30;69.80;;;;;;6210953;23;20463;-46
2022/09/08 11:38:47;;;;;;;3.17;1.37;;;24.00;70.50;;;;;;6212728;23;20461;-44
2022/09/08 11:41:37;;;;;;;3.43;1.20;;;24.20;70.00;;;;;;6214620;23;20808;-46
2022/09/08 11:44:35;;;;;;;2.33;1.07;;;23.50;70.90;;;;;;6188018;23;20419;-45
2022/09/08 11:47:20;;;;;;;1.60;0.93;;;22.90;72.70;;;;;;6143140;23;20482;-45
2022/09/08 11:50:20;;;;;;;1.37;1.00;;;22.30;74.10;;;;;;6214735;23;20771;-44
2022/09/08 11:53:18;;;;;;;1.80;1.13;;;21.50;77.40;;;;;;6213402;23;20521;-46
2022/09/08 11:55:53;;;;;;;1.60;1.20;;;21.20;79.10;;;;;;6078854;23;20426;-45
2022/09/08 11:58:34;;;;;;;1.70;1.10;;;21.10;81.50;;;;;;6213228;23;20746;-45
2022/09/08 12:01:37;;;;;;;2.20;1.23;;;20.80;84.10;;;;;;6214700;23;20419;-44
2022/09/08 12:04:33;;;;;;;2.83;1.50;;;20.60;86.80;;;;;;6214293;23;20489;-45
2022/09/08 12:07:26;;;;;;;2.90;1.93;;;20.10;91.70;;;;;;6213422;23;20372;-43
2022/09/08 12:10:13;;;;;;;1.90;1.10;;;19.60;94.20;;;;;;6213020;23;20376;-44
2022/09/08 12:12:52;;;;;;;1.80;1.20;;;19.50;94.20;;;;;;6213956;23;20759;-44
2022/09/08 12:15:24;;;;;;;2.57;1.57;;;19.20;95.30;;;;;;6215178;23;20790;-47
2022/09/08 12:18:19;;;;;;;3.60;1.80;;;19.10;97.30;;;;;;6215523;23;20361;-45
2022/09/08 12:21:03;;;;;;;5.83;1.80;;;19.10;96.10;;;;;;6188493;23;20397;-45
2022/09/08 12:23:45;;;;;;;2.40;1.17;;;19.40;96.10;;;;;;6214087;23;20797;-43
2022/09/08 12:26:40;;;;;;;3.30;1.23;;;20.00;94.20;;;;;;6189860;23;20389;-44
2022/09/08 12:29:32;;;;;;;1.93;1.20;;;20.50;93.70;;;;;;6214900;23;20655;-44
2022/09/08 12:32:03;;;;;;;2.40;1.17;;;20.70;92.70;;;;;;6207110;23;20404;-44
2022/09/08 12:34:38;;;;;;;5.10;1.10;;;21.60;91.60;;;;;;6214485;23;20753;-45
2022/09/08 12:37:12;;;;;;;2.73;1.10;;;22.10;89.00;;;;;;6216034;23;20418;-45
2022/09/08 12:40:02;;;;;;;1.10;0.80;;;22.40;85.30;;;;;;6216570;23;20371;-46
2022/09/08 12:43:23;;;;;;;2.70;1.00;;;22.90;85.20;;;;;;6190225;23;20359;-47
2022/09/08 12:46:15;;;;;;;4.33;1.20;;;23.10;80.10;;;;;;6181532;23;20400;-45
2022/09/08 12:49:05;;;;;;;3.63;1.20;;;24.10;77.50;;;;;;6188772;23;20402;-44
2022/09/08 12:51:32;;;;;;;3.20;1.10;;;24.10;75.60;;;;;;6214907;23;20915;-46
2022/09/08 12:54:23;;;;;;;2.40;1.03;;;24.00;74.60;;;;;;6216479;23;20475;-45
2022/09/08 12:57:10;;;;;;;1.73;0.90;;;23.70;75.00;;;;;;6216352;23;20411;-45
2022/09/08 12:59:36;;;;;;;4.10;1.53;;;23.00;73.90;;;;;;6215757;23;20460;-47
2022/09/08 13:02:38;;;;;;;1.60;1.30;;;22.90;74.20;;;;;;6213800;23;20395;-44
2022/09/08 13:05:37;;;;;;;2.03;0.93;;;22.90;73.50;;;;;;6213047;23;20585;-44
2022/09/08 13:08:44;;;;;;;2.97;1.23;;;22.70;73.20;;;;;;6214580;23;20360;-42
2022/09/08 13:11:38;;;;;;;2.60;1.20;;;22.20;75.40;;;;;;6146633;23;20432;-44
2022/09/08 13:14:09;;;;;;;1.70;1.00;;;21.50;76.80;;;;;;6152406;23;20444;-45
2022/09/08 13:16:56;;;;;;;3.10;1.47;;;21.30;76.90;;;;;;6214212;23;20377;-44
2022/09/08 13:19:25;;;;;;;2.10;1.30;;;21.00;78.10;;;;;;6216872;23;20472;-45
2022/09/08 13:21:59;;;;;;;1.53;1.00;;;20.90;79.90;;;;;;6215869;23;20366;-46
2022/09/08 13:24:32;;;;;;;3.13;1.43;;;21.10;80.70;;;;;;6213849;23;20370;-44
2022/09/08 13:27:23;;;;;;;2.57;1.53;;;21.70;79.10;;;;;;6185438;23;20448;-43
2022/09/08 13:30:07;;;;;;;1.73;1.23;;;22.40;76.20;;;;;;6212553;23;20660;-46
2022/09/08 13:32:35;;;;;;;3.50;1.20;;;22.50;76.60;;;;;;6183925;23;20364;-44
2022/09/08 13:35:09;;;;;;;4.00;1.70;;;23.00;75.50;;;;;;6211961;23;20386;-45
2022/09/08 13:37:54;;;;;;;4.90;1.50;;;23.70;75.10;;;;;;6211896;23;20773;-45